KCLT/CLT METAR and TAF weather

Enter ICAO airport designator
Station Type Date Time Source
KCLT METAR 2022/06/26 06:52 UTC NOAA

KCLT 260652Z 18007KT 10SM FEW250 24/18 A3013 RMK SLP192 T02390183 $


Station Type Date Time Source
KCLT Decoded METAR 2022/06/26 06:52 UTC NOAA

CHARLOTTE/DOUGLAS INTERNATIONAL , NC, United States (KCLT) 35-13N 80-57W 220M
Jun 26, 2022 - 02:52 AM EDT / 2022.06.26 0652 UTC
Wind: from the S (180 degrees) at 8 MPH (7 KT):0
Visibility: 10 mile(s):0
Sky conditions: mostly clear
Temperature: 75.0 F (23.9 C)
Dew Point: 64.9 F (18.3 C)
Relative Humidity: 70%
Pressure (altimeter): 30.13 in. Hg (1020 hPa)
ob: KCLT 260652Z 18007KT 10SM FEW250 24/18 A3013 RMK SLP192 T02390183
cycle: 7

Station Type Date Time Source
KCLT TAF 2022/06/26 06:24 UTC NOAA

TAF KCLT 260521Z 2606/2712 16003KT P6SM SCT090 BKN110
FM261600 21005KT P6SM BKN090
FM262200 29005KT P6SM BKN080
FM270500 20003KT P6SM BKN100

Example: see airport list